sensor_id;sensor_type;location;lat;lon;timestamp;pressure;altitude;pressure_sealevel;temperature;humidity
58698;BME280;44475;53.206;-6.106;2023-03-13T00:04:02;98105.03;;;23.95;44.53
58698;BME280;44475;53.206;-6.106;2023-03-13T00:06:31;98115.75;;;23.96;43.96
58698;BME280;44475;53.206;-6.106;2023-03-13T00:08:58;98123.13;;;23.96;44.26
58698;BME280;44475;53.206;-6.106;2023-03-13T00:11:27;98114.69;;;23.91;44.68
58698;BME280;44475;53.206;-6.106;2023-03-13T00:13:55;98093.66;;;24.12;44.06
58698;BME280;44475;53.206;-6.106;2023-03-13T00:16:21;98104.41;;;24.13;44.10
58698;BME280;44475;53.206;-6.106;2023-03-13T00:18:50;98089.88;;;24.06;43.82
58698;BME280;44475;53.206;-6.106;2023-03-13T00:21:18;98081.44;;;24.01;44.00
58698;BME280;44475;53.206;-6.106;2023-03-13T00:23:46;98087.16;;;23.99;43.87
58698;BME280;44475;53.206;-6.106;2023-03-13T00:26:14;98081.69;;;23.99;43.99
58698;BME280;44475;53.206;-6.106;2023-03-13T00:28:42;98067.34;;;24.11;43.88
58698;BME280;44475;53.206;-6.106;2023-03-13T00:33:39;98061.69;;;24.05;43.75
58698;BME280;44475;53.206;-6.106;2023-03-13T00:36:09;98036.44;;;23.96;43.91
58698;BME280;44475;53.206;-6.106;2023-03-13T00:38:36;98040.44;;;24.07;43.55
58698;BME280;44475;53.206;-6.106;2023-03-13T00:41:07;98051.19;;;24.09;43.55
58698;BME280;44475;53.206;-6.106;2023-03-13T00:43:35;98050.53;;;24.07;43.82
58698;BME280;44475;53.206;-6.106;2023-03-13T00:46:01;98035.16;;;24.13;43.87
58698;BME280;44475;53.206;-6.106;2023-03-13T00:48:27;98047.78;;;24.14;43.80
58698;BME280;44475;53.206;-6.106;2023-03-13T00:50:54;98056.44;;;24.17;43.41
58698;BME280;44475;53.206;-6.106;2023-03-13T00:53:20;98052.03;;;24.09;43.53
58698;BME280;44475;53.206;-6.106;2023-03-13T00:55:59;98045.47;;;24.11;43.29
58698;BME280;44475;53.206;-6.106;2023-03-13T00:58:28;98025.06;;;24.13;43.47
58698;BME280;44475;53.206;-6.106;2023-03-13T01:00:55;98026.56;;;24.09;43.36
58698;BME280;44475;53.206;-6.106;2023-03-13T01:03:23;98021.94;;;24.09;43.67
58698;BME280;44475;53.206;-6.106;2023-03-13T01:06:00;98017.09;;;24.05;43.63
58698;BME280;44475;53.206;-6.106;2023-03-13T01:08:28;97996.91;;;23.99;43.79
58698;BME280;44475;53.206;-6.106;2023-03-13T01:11:02;97999.63;;;23.92;43.97
58698;BME280;44475;53.206;-6.106;2023-03-13T01:13:30;98000.47;;;24.06;43.47
58698;BME280;44475;53.206;-6.106;2023-03-13T01:18:31;97999.00;;;24.04;43.60
58698;BME280;44475;53.206;-6.106;2023-03-13T01:20:58;97997.53;;;24.08;43.55
58698;BME280;44475;53.206;-6.106;2023-03-13T01:23:24;98005.09;;;24.06;43.58
58698;BME280;44475;53.206;-6.106;2023-03-13T01:25:51;97996.47;;;24.02;43.47
58698;BME280;44475;53.206;-6.106;2023-03-13T01:28:17;97990.34;;;24.00;43.63
58698;BME280;44475;53.206;-6.106;2023-03-13T01:30:43;97985.31;;;24.11;43.43
58698;BME280;44475;53.206;-6.106;2023-03-13T01:33:09;97967.84;;;24.05;43.71
58698;BME280;44475;53.206;-6.106;2023-03-13T01:35:35;97982.78;;;24.02;43.65
58698;BME280;44475;53.206;-6.106;2023-03-13T01:38:02;97964.09;;;23.99;43.78
58698;BME280;44475;53.206;-6.106;2023-03-13T01:40:28;97951.88;;;24.08;43.39
58698;BME280;44475;53.206;-6.106;2023-03-13T01:42:59;97952.28;;;24.05;43.32
58698;BME280;44475;53.206;-6.106;2023-03-13T01:46:04;97933.78;;;24.07;43.58
58698;BME280;44475;53.206;-6.106;2023-03-13T01:59:29;97902.69;;;23.88;43.84
58698;BME280;44475;53.206;-6.106;2023-03-13T02:01:59;97920.09;;;24.01;43.47
58698;BME280;44475;53.206;-6.106;2023-03-13T02:04:30;97912.13;;;23.99;43.37
58698;BME280;44475;53.206;-6.106;2023-03-13T02:07:02;97901.16;;;24.06;43.16
58698;BME280;44475;53.206;-6.106;2023-03-13T02:09:31;97902.03;;;23.93;43.60
58698;BME280;44475;53.206;-6.106;2023-03-13T02:12:31;97915.72;;;23.86;43.43
58698;BME280;44475;53.206;-6.106;2023-03-13T02:15:04;97907.69;;;23.91;43.86
58698;BME280;44475;53.206;-6.106;2023-03-13T02:17:33;97914.22;;;23.97;43.55
58698;BME280;44475;53.206;-6.106;2023-03-13T02:20:01;97902.00;;;23.99;43.50
58698;BME280;44475;53.206;-6.106;2023-03-13T02:25:42;97881.00;;;23.86;43.59
58698;BME280;44475;53.206;-6.106;2023-03-13T02:30:43;97902.69;;;23.88;43.37
58698;BME280;44475;53.206;-6.106;2023-03-13T02:33:11;97904.34;;;23.89;43.48
58698;BME280;44475;53.206;-6.106;2023-03-13T02:35:38;97904.13;;;23.91;43.18
58698;BME280;44475;53.206;-6.106;2023-03-13T02:38:12;97894.88;;;23.92;43.26
58698;BME280;44475;53.206;-6.106;2023-03-13T02:40:43;97891.09;;;23.93;43.39
58698;BME280;44475;53.206;-6.106;2023-03-13T02:48:48;97869.63;;;23.89;43.21
58698;BME280;44475;53.206;-6.106;2023-03-13T02:51:40;97858.47;;;23.91;43.34
58698;BME280;44475;53.206;-6.106;2023-03-13T02:54:13;97854.50;;;23.87;43.60
58698;BME280;44475;53.206;-6.106;2023-03-13T02:56:43;97852.81;;;23.93;43.27
58698;BME280;44475;53.206;-6.106;2023-03-13T02:59:11;97854.06;;;23.97;43.14
58698;BME280;44475;53.206;-6.106;2023-03-13T03:01:40;97854.31;;;23.88;43.36
58698;BME280;44475;53.206;-6.106;2023-03-13T03:04:07;97856.81;;;23.83;43.64
58698;BME280;44475;53.206;-6.106;2023-03-13T03:06:33;97852.00;;;23.85;43.39
58698;BME280;44475;53.206;-6.106;2023-03-13T03:09:02;97855.13;;;23.89;43.36
58698;BME280;44475;53.206;-6.106;2023-03-13T03:11:31;97840.78;;;24.01;43.11
58698;BME280;44475;53.206;-6.106;2023-03-13T03:14:02;97833.66;;;23.93;43.34
58698;BME280;44475;53.206;-6.106;2023-03-13T03:16:32;97812.06;;;23.77;43.68
58698;BME280;44475;53.206;-6.106;2023-03-13T03:18:58;97793.91;;;23.90;43.38
58698;BME280;44475;53.206;-6.106;2023-03-13T03:21:24;97786.97;;;23.94;43.46
58698;BME280;44475;53.206;-6.106;2023-03-13T03:23:51;97780.47;;;23.88;43.40
58698;BME280;44475;53.206;-6.106;2023-03-13T03:26:18;97771.88;;;23.78;43.42
58698;BME280;44475;53.206;-6.106;2023-03-13T03:28:44;97753.16;;;23.82;43.63
58698;BME280;44475;53.206;-6.106;2023-03-13T03:31:14;97767.88;;;23.87;43.23
58698;BME280;44475;53.206;-6.106;2023-03-13T03:33:41;97766.16;;;23.93;43.15
58698;BME280;44475;53.206;-6.106;2023-03-13T03:36:13;97740.94;;;23.84;43.25
58698;BME280;44475;53.206;-6.106;2023-03-13T03:38:40;97731.06;;;23.83;43.08
58698;BME280;44475;53.206;-6.106;2023-03-13T03:41:10;97748.91;;;23.93;42.96
58698;BME280;44475;53.206;-6.106;2023-03-13T03:43:36;97738.16;;;23.91;43.04
58698;BME280;44475;53.206;-6.106;2023-03-13T03:46:05;97742.59;;;23.92;43.12
58698;BME280;44475;53.206;-6.106;2023-03-13T03:48:32;97746.19;;;23.86;43.29
58698;BME280;44475;53.206;-6.106;2023-03-13T03:50:59;97722.22;;;23.88;42.94
58698;BME280;44475;53.206;-6.106;2023-03-13T03:53:26;97741.75;;;23.92;42.85
58698;BME280;44475;53.206;-6.106;2023-03-13T03:55:53;97747.22;;;23.92;42.65
58698;BME280;44475;53.206;-6.106;2023-03-13T03:58:19;97744.94;;;23.88;42.77
58698;BME280;44475;53.206;-6.106;2023-03-13T04:00:59;97747.22;;;23.92;42.85
58698;BME280;44475;53.206;-6.106;2023-03-13T04:03:26;97747.00;;;23.93;42.79
58698;BME280;44475;53.206;-6.106;2023-03-13T04:05:52;97737.13;;;23.92;42.67
58698;BME280;44475;53.206;-6.106;2023-03-13T04:08:21;97745.53;;;23.91;42.95
58698;BME280;44475;53.206;-6.106;2023-03-13T04:10:47;97767.88;;;23.87;42.94
58698;BME280;44475;53.206;-6.106;2023-03-13T04:13:14;97766.81;;;23.82;42.88
58698;BME280;44475;53.206;-6.106;2023-03-13T04:15:41;97749.56;;;23.81;42.72
58698;BME280;44475;53.206;-6.106;2023-03-13T04:18:09;97755.88;;;23.82;43.11
58698;BME280;44475;53.206;-6.106;2023-03-13T04:20:36;97739.25;;;23.83;43.06
58698;BME280;44475;53.206;-6.106;2023-03-13T04:23:02;97728.53;;;23.88;42.62
58698;BME280;44475;53.206;-6.106;2023-03-13T04:25:29;97686.69;;;23.88;43.02
58698;BME280;44475;53.206;-6.106;2023-03-13T04:27:58;97682.66;;;23.91;42.88
58698;BME280;44475;53.206;-6.106;2023-03-13T04:30:29;97656.63;;;23.81;43.22
58698;BME280;44475;53.206;-6.106;2023-03-13T04:33:23;97662.31;;;23.79;42.97
58698;BME280;44475;53.206;-6.106;2023-03-13T04:36:02;97675.53;;;23.83;42.89
58698;BME280;44475;53.206;-6.106;2023-03-13T04:38:47;97708.38;;;23.76;43.21
58698;BME280;44475;53.206;-6.106;2023-03-13T04:41:34;97720.75;;;23.78;42.91
58698;BME280;44475;53.206;-6.106;2023-03-13T04:44:32;97685.22;;;23.85;43.17
58698;BME280;44475;53.206;-6.106;2023-03-13T04:47:24;97662.28;;;23.86;43.15
58698;BME280;44475;53.206;-6.106;2023-03-13T04:50:06;97676.38;;;23.83;43.09
58698;BME280;44475;53.206;-6.106;2023-03-13T04:52:43;97695.94;;;23.80;42.93
58698;BME280;44475;53.206;-6.106;2023-03-13T04:55:18;97699.13;;;23.77;43.13
58698;BME280;44475;53.206;-6.106;2023-03-13T04:57:55;97701.41;;;23.80;43.18
58698;BME280;44475;53.206;-6.106;2023-03-13T05:00:40;97684.16;;;23.79;43.16
58698;BME280;44475;53.206;-6.106;2023-03-13T05:03:11;97705.19;;;23.79;43.15
58698;BME280;44475;53.206;-6.106;2023-03-13T05:06:10;97699.13;;;23.77;43.16
58698;BME280;44475;53.206;-6.106;2023-03-13T05:08:56;97705.66;;;23.76;43.09
58698;BME280;44475;53.206;-6.106;2023-03-13T05:11:38;97697.44;;;23.76;43.10
58698;BME280;44475;53.206;-6.106;2023-03-13T05:14:28;97689.03;;;23.77;43.21
58698;BME280;44475;53.206;-6.106;2023-03-13T05:17:07;97694.25;;;23.79;43.22
58698;BME280;44475;53.206;-6.106;2023-03-13T05:19:53;97689.03;;;23.77;43.03
58698;BME280;44475;53.206;-6.106;2023-03-13T05:22:38;97680.38;;;23.87;43.06
58698;BME280;44475;53.206;-6.106;2023-03-13T05:25:35;97682.69;;;23.84;42.85
58698;BME280;44475;53.206;-6.106;2023-03-13T05:28:19;97676.44;;;23.69;43.38
58698;BME280;44475;53.206;-6.106;2023-03-13T05:30:45;97679.63;;;23.66;43.29
58698;BME280;44475;53.206;-6.106;2023-03-13T05:33:44;97693.03;;;23.68;43.28
58698;BME280;44475;53.206;-6.106;2023-03-13T05:36:28;97685.69;;;23.75;43.34
58698;BME280;44475;53.206;-6.106;2023-03-13T05:39:02;97687.56;;;23.75;43.33
58698;BME280;44475;53.206;-6.106;2023-03-13T05:41:51;97681.47;;;23.73;43.16
58698;BME280;44475;53.206;-6.106;2023-03-13T05:44:30;97695.34;;;23.78;43.05
58698;BME280;44475;53.206;-6.106;2023-03-13T05:47:16;97700.41;;;23.74;43.06
58698;BME280;44475;53.206;-6.106;2023-03-13T05:50:06;97670.28;;;23.81;43.26
58698;BME280;44475;53.206;-6.106;2023-03-13T05:52:55;97676.88;;;23.66;43.19
58698;BME280;44475;53.206;-6.106;2023-03-13T05:55:36;97645.94;;;23.73;43.07
58698;BME280;44475;53.206;-6.106;2023-03-13T05:58:16;97659.41;;;23.74;43.19
58698;BME280;44475;53.206;-6.106;2023-03-13T06:00:49;97646.16;;;23.78;43.10
58698;BME280;44475;53.206;-6.106;2023-03-13T06:03:45;97663.81;;;23.75;43.36
58698;BME280;44475;53.206;-6.106;2023-03-13T06:06:13;97673.50;;;23.71;43.12
58698;BME280;44475;53.206;-6.106;2023-03-13T06:08:54;97672.03;;;23.68;43.19
58698;BME280;44475;53.206;-6.106;2023-03-13T06:11:21;97672.41;;;23.79;43.05
58698;BME280;44475;53.206;-6.106;2023-03-13T06:13:49;97671.38;;;23.73;43.31
58698;BME280;44475;53.206;-6.106;2023-03-13T06:16:32;97654.56;;;23.76;43.25
58698;BME280;44475;53.206;-6.106;2023-03-13T06:19:13;97657.50;;;23.75;43.34
58698;BME280;44475;53.206;-6.106;2023-03-13T06:21:40;97649.50;;;23.73;43.26
58698;BME280;44475;53.206;-6.106;2023-03-13T06:24:06;97649.50;;;23.73;43.08
58698;BME280;44475;53.206;-6.106;2023-03-13T06:26:32;97643.63;;;23.76;43.27
58698;BME280;44475;53.206;-6.106;2023-03-13T06:28:58;97641.94;;;23.75;43.15
58698;BME280;44475;53.206;-6.106;2023-03-13T06:31:25;97647.56;;;23.81;42.91
58698;BME280;44475;53.206;-6.106;2023-03-13T06:33:55;97646.16;;;23.78;42.89
58698;BME280;44475;53.206;-6.106;2023-03-13T06:36:24;97645.47;;;23.83;42.72
58698;BME280;44475;53.206;-6.106;2023-03-13T06:38:51;97652.66;;;23.77;43.15
58698;BME280;44475;53.206;-6.106;2023-03-13T06:41:17;97650.97;;;23.76;43.16
58698;BME280;44475;53.206;-6.106;2023-03-13T06:43:44;97649.09;;;23.76;43.21
58698;BME280;44475;53.206;-6.106;2023-03-13T06:46:19;97659.41;;;23.74;43.15
58698;BME280;44475;53.206;-6.106;2023-03-13T06:48:46;97649.31;;;23.75;43.06
58698;BME280;44475;53.206;-6.106;2023-03-13T06:51:14;97660.44;;;23.73;43.10
58698;BME280;44475;53.206;-6.106;2023-03-13T06:53:41;97656.25;;;23.71;42.90
58698;BME280;44475;53.206;-6.106;2023-03-13T06:56:09;97656.66;;;23.74;42.96
58698;BME280;44475;53.206;-6.106;2023-03-13T06:58:35;97659.19;;;23.76;42.77
58698;BME280;44475;53.206;-6.106;2023-03-13T07:01:10;97654.34;;;23.78;42.93
58698;BME280;44475;53.206;-6.106;2023-03-13T07:03:37;97650.09;;;23.82;42.86
58698;BME280;44475;53.206;-6.106;2023-03-13T07:06:04;97655.19;;;23.72;42.86
58698;BME280;44475;53.206;-6.106;2023-03-13T07:08:31;97655.88;;;23.67;43.00
58698;BME280;44475;53.206;-6.106;2023-03-13T07:11:00;97658.34;;;23.75;42.79
58698;BME280;44475;53.206;-6.106;2023-03-13T07:13:27;97661.06;;;23.75;42.61
58698;BME280;44475;53.206;-6.106;2023-03-13T07:15:53;97663.41;;;23.72;42.92
58698;BME280;44475;53.206;-6.106;2023-03-13T07:18:21;97661.72;;;23.71;42.89
58698;BME280;44475;53.206;-6.106;2023-03-13T07:20:55;97661.94;;;23.62;43.00
58698;BME280;44475;53.206;-6.106;2023-03-13T07:23:24;97664.66;;;23.62;43.06
58698;BME280;44475;53.206;-6.106;2023-03-13T07:25:59;97665.13;;;23.66;43.02
58698;BME280;44475;53.206;-6.106;2023-03-13T07:28:26;97662.75;;;23.76;42.64
58698;BME280;44475;53.206;-6.106;2023-03-13T07:30:53;97659.41;;;23.74;42.92
58698;BME280;44475;53.206;-6.106;2023-03-13T07:33:19;97655.81;;;23.74;42.65
58698;BME280;44475;53.206;-6.106;2023-03-13T07:35:50;97659.41;;;23.74;42.46
58698;BME280;44475;53.206;-6.106;2023-03-13T07:38:17;97663.59;;;23.77;42.76
58698;BME280;44475;53.206;-6.106;2023-03-13T07:40:52;97667.81;;;23.73;42.83
58698;BME280;44475;53.206;-6.106;2023-03-13T07:43:19;97665.94;;;23.59;42.69
58698;BME280;44475;53.206;-6.106;2023-03-13T07:45:53;97655.84;;;23.60;42.70
58698;BME280;44475;53.206;-6.106;2023-03-13T07:48:21;97649.97;;;23.63;43.03
58698;BME280;44475;53.206;-6.106;2023-03-13T07:50:47;97654.34;;;23.71;42.73
58698;BME280;44475;53.206;-6.106;2023-03-13T07:53:14;97665.06;;;23.73;42.51
58698;BME280;44475;53.206;-6.106;2023-03-13T07:56:00;97656.44;;;23.76;42.65
58698;BME280;44475;53.206;-6.106;2023-03-13T07:58:28;97656.44;;;23.76;42.46
58698;BME280;44475;53.206;-6.106;2023-03-13T08:00:55;97658.34;;;23.68;42.91
58698;BME280;44475;53.206;-6.106;2023-03-13T08:03:22;97656.66;;;23.74;42.61
58698;BME280;44475;53.206;-6.106;2023-03-13T08:06:04;97651.81;;;23.76;42.74
58698;BME280;44475;53.206;-6.106;2023-03-13T08:08:30;97652.69;;;23.70;42.88
58698;BME280;44475;53.206;-6.106;2023-03-13T08:11:08;97652.47;;;23.72;42.66
58698;BME280;44475;53.206;-6.106;2023-03-13T08:13:35;97660.63;;;23.78;42.71
58698;BME280;44475;53.206;-6.106;2023-03-13T08:18:32;97656.69;;;23.61;43.07
58698;BME280;44475;53.206;-6.106;2023-03-13T08:21:05;97668.06;;;23.64;42.71
58698;BME280;44475;53.206;-6.106;2023-03-13T08:23:32;97666.97;;;23.72;42.93
58698;BME280;44475;53.206;-6.106;2023-03-13T08:26:20;97664.06;;;23.67;43.02
58698;BME280;44475;53.206;-6.106;2023-03-13T08:28:50;97660.03;;;23.69;42.84
58698;BME280;44475;53.206;-6.106;2023-03-13T08:31:20;97673.91;;;23.68;42.51
58698;BME280;44475;53.206;-6.106;2023-03-13T08:33:46;97681.06;;;23.69;42.67
58698;BME280;44475;53.206;-6.106;2023-03-13T08:36:21;97680.00;;;23.70;42.70
58698;BME280;44475;53.206;-6.106;2023-03-13T08:38:51;97682.53;;;23.72;42.75
58698;BME280;44475;53.206;-6.106;2023-03-13T08:41:20;97677.91;;;23.58;42.95
58698;BME280;44475;53.206;-6.106;2023-03-13T08:43:47;97690.13;;;23.63;43.11
58698;BME280;44475;53.206;-6.106;2023-03-13T08:46:14;97690.94;;;23.70;42.70
58698;BME280;44475;53.206;-6.106;2023-03-13T08:48:41;97681.69;;;23.71;42.90
58698;BME280;44475;53.206;-6.106;2023-03-13T08:51:10;97690.31;;;23.75;42.63
58698;BME280;44475;53.206;-6.106;2023-03-13T08:53:37;97681.88;;;23.76;42.46
58698;BME280;44475;53.206;-6.106;2023-03-13T08:56:05;97698.88;;;23.78;42.58
58698;BME280;44475;53.206;-6.106;2023-03-13T08:58:32;97691.53;;;23.79;42.47
58698;BME280;44475;53.206;-6.106;2023-03-13T09:03:35;97689.72;;;23.66;42.89
58698;BME280;44475;53.206;-6.106;2023-03-13T09:06:02;97691.78;;;23.71;42.64
58698;BME280;44475;53.206;-6.106;2023-03-13T09:08:29;97703.56;;;23.78;42.78
58698;BME280;44475;53.206;-6.106;2023-03-13T09:11:03;97698.94;;;23.72;42.80
58698;BME280;44475;53.206;-6.106;2023-03-13T09:13:31;97706.91;;;23.73;42.61
58698;BME280;44475;53.206;-6.106;2023-03-13T09:16:03;97707.13;;;23.58;42.93
58698;BME280;44475;53.206;-6.106;2023-03-13T09:18:30;97707.75;;;23.74;42.76
58698;BME280;44475;53.206;-6.106;2023-03-13T09:20:56;97711.53;;;23.73;42.74
58698;BME280;44475;53.206;-6.106;2023-03-13T09:23:23;97705.06;;;23.67;42.66
58698;BME280;44475;53.206;-6.106;2023-03-13T09:25:52;97701.03;;;23.69;42.82
58698;BME280;44475;53.206;-6.106;2023-03-13T09:28:18;97695.78;;;23.75;42.65
58698;BME280;44475;53.206;-6.106;2023-03-13T09:30:45;97701.81;;;23.84;42.35
58698;BME280;44475;53.206;-6.106;2023-03-13T09:33:11;97705.66;;;23.76;42.42
58698;BME280;44475;53.206;-6.106;2023-03-13T09:35:40;97708.38;;;23.69;42.61
58698;BME280;44475;53.206;-6.106;2023-03-13T09:38:07;97704.81;;;23.68;42.59
58698;BME280;44475;53.206;-6.106;2023-03-13T09:40:43;97700.59;;;23.73;42.47
58698;BME280;44475;53.206;-6.106;2023-03-13T09:43:41;97712.59;;;23.72;42.49
58698;BME280;44475;53.206;-6.106;2023-03-13T09:46:17;97715.31;;;23.72;42.79
58698;BME280;44475;53.206;-6.106;2023-03-13T09:48:59;97710.75;;;23.65;42.48
58698;BME280;44475;53.206;-6.106;2023-03-13T09:51:37;97721.47;;;23.67;42.53
58698;BME280;44475;53.206;-6.106;2023-03-13T09:56:56;97708.81;;;23.59;42.91
58698;BME280;44475;53.206;-6.106;2023-03-13T09:59:56;97719.75;;;23.73;42.56
58698;BME280;44475;53.206;-6.106;2023-03-13T10:02:33;97717.88;;;23.66;42.64
58698;BME280;44475;53.206;-6.106;2023-03-13T10:05:23;97733.63;;;23.71;42.81
58698;BME280;44475;53.206;-6.106;2023-03-13T10:07:50;97731.31;;;23.75;42.46
58698;BME280;44475;53.206;-6.106;2023-03-13T10:10:37;97727.53;;;23.76;42.37
58698;BME280;44475;53.206;-6.106;2023-03-13T10:13:40;97722.84;;;23.83;42.58
58698;BME280;44475;53.206;-6.106;2023-03-13T10:16:21;97727.53;;;23.76;42.69
58698;BME280;44475;53.206;-6.106;2023-03-13T10:21:35;97718.06;;;23.72;42.42
58698;BME280;44475;53.206;-6.106;2023-03-13T10:26:34;97718.91;;;23.72;42.54
58698;BME280;44475;53.206;-6.106;2023-03-13T10:29:19;97712.84;;;23.63;42.58
58698;BME280;44475;53.206;-6.106;2023-03-13T10:31:58;97716.59;;;23.62;42.85
58698;BME280;44475;53.206;-6.106;2023-03-13T10:34:28;97707.16;;;23.65;42.65
58698;BME280;44475;53.206;-6.106;2023-03-13T10:36:58;97715.13;;;23.73;42.57
58698;BME280;44475;53.206;-6.106;2023-03-13T10:39:29;97710.28;;;23.75;42.49
58698;BME280;44475;53.206;-6.106;2023-03-13T10:42:10;97696.81;;;23.74;42.40
58698;BME280;44475;53.206;-6.106;2023-03-13T10:44:44;97699.34;;;23.68;43.03
58698;BME280;44475;53.206;-6.106;2023-03-13T10:47:14;97702.75;;;23.64;42.80
58698;BME280;44475;53.206;-6.106;2023-03-13T10:49:49;97704.78;;;23.82;42.49
58698;BME280;44475;53.206;-6.106;2023-03-13T10:52:32;97703.56;;;23.71;42.62
58698;BME280;44475;53.206;-6.106;2023-03-13T10:58:51;97710.69;;;23.72;42.86
58698;BME280;44475;53.206;-6.106;2023-03-13T11:01:27;97709.22;;;23.76;42.58
58698;BME280;44475;53.206;-6.106;2023-03-13T11:04:29;97711.13;;;23.76;42.59
58698;BME280;44475;53.206;-6.106;2023-03-13T11:07:13;97714.66;;;23.83;42.31
58698;BME280;44475;53.206;-6.106;2023-03-13T11:09:41;97722.22;;;23.81;42.32
58698;BME280;44475;53.206;-6.106;2023-03-13T11:12:17;97722.69;;;23.78;42.23
58698;BME280;44475;53.206;-6.106;2023-03-13T11:14:45;97723.28;;;23.80;42.25
58698;BME280;44475;53.206;-6.106;2023-03-13T11:17:27;97726.66;;;23.82;42.20
58698;BME280;44475;53.206;-6.106;2023-03-13T11:25:34;97726.09;;;23.66;42.53
58698;BME280;44475;53.206;-6.106;2023-03-13T11:31:12;97715.13;;;23.73;42.39
58698;BME280;44475;53.206;-6.106;2023-03-13T11:33:52;97718.06;;;23.58;42.52
58698;BME280;44475;53.206;-6.106;2023-03-13T11:36:29;97729.19;;;23.77;42.63
58698;BME280;44475;53.206;-6.106;2023-03-13T11:56:43;97763.25;;;23.81;42.29
58698;BME280;44475;53.206;-6.106;2023-03-13T12:02:00;97758.63;;;23.82;42.20
58698;BME280;44475;53.206;-6.106;2023-03-13T12:04:44;97750.63;;;23.87;41.98
58698;BME280;44475;53.206;-6.106;2023-03-13T12:07:26;97746.38;;;23.91;42.04
58698;BME280;44475;53.206;-6.106;2023-03-13T12:10:04;97756.72;;;23.82;42.12
58698;BME280;44475;53.206;-6.106;2023-03-13T12:13:06;97737.34;;;23.91;41.88
58698;BME280;44475;53.206;-6.106;2023-03-13T12:15:44;97730.44;;;23.88;42.12
58698;BME280;44475;53.206;-6.106;2023-03-13T12:18:19;97744.31;;;23.79;42.27
58698;BME280;44475;53.206;-6.106;2023-03-13T12:26:27;97738.44;;;24.29;41.66
58698;BME280;44475;53.206;-6.106;2023-03-13T12:31:59;97736.59;;;24.55;40.99
58698;BME280;44475;53.206;-6.106;2023-03-13T12:37:47;97743.88;;;24.68;40.61
58698;BME280;44475;53.206;-6.106;2023-03-13T12:43:33;97722.34;;;24.79;40.30
58698;BME280;44475;53.206;-6.106;2023-03-13T12:56:17;97728.69;;;24.98;40.41
58698;BME280;44475;53.206;-6.106;2023-03-13T12:59:02;97737.19;;;24.90;40.63
58698;BME280;44475;53.206;-6.106;2023-03-13T13:01:55;97752.59;;;24.84;40.58
58698;BME280;44475;53.206;-6.106;2023-03-13T13:04:25;97740.38;;;24.87;40.09
58698;BME280;44475;53.206;-6.106;2023-03-13T13:06:56;97749.44;;;24.87;40.24
58698;BME280;44475;53.206;-6.106;2023-03-13T13:09:57;97741.06;;;24.82;40.12
58698;BME280;44475;53.206;-6.106;2023-03-13T13:12:25;97745.91;;;24.80;40.22
58698;BME280;44475;53.206;-6.106;2023-03-13T13:14:54;97753.50;;;24.78;40.19
58698;BME280;44475;53.206;-6.106;2023-03-13T13:17:46;97751.44;;;24.73;40.29
58698;BME280;44475;53.206;-6.106;2023-03-13T13:20:27;97757.38;;;24.70;40.23
58698;BME280;44475;53.206;-6.106;2023-03-13T13:22:56;97751.25;;;24.68;40.39
58698;BME280;44475;53.206;-6.106;2023-03-13T13:25:44;97748.38;;;24.63;40.37
58698;BME280;44475;53.206;-6.106;2023-03-13T13:30:48;97764.59;;;24.57;40.51
58698;BME280;44475;53.206;-6.106;2023-03-13T13:35:47;97757.50;;;24.50;40.58
58698;BME280;44475;53.206;-6.106;2023-03-13T13:38:31;97764.88;;;24.42;40.53
58698;BME280;44475;53.206;-6.106;2023-03-13T13:41:21;97769.75;;;24.40;40.80
58698;BME280;44475;53.206;-6.106;2023-03-13T13:43:49;97768.72;;;24.41;40.72
58698;BME280;44475;53.206;-6.106;2023-03-13T13:46:39;97760.28;;;24.36;40.61
58698;BME280;44475;53.206;-6.106;2023-03-13T13:49:18;97772.47;;;24.33;40.81
58698;BME280;44475;53.206;-6.106;2023-03-13T13:54:53;97757.13;;;24.32;40.97
58698;BME280;44475;53.206;-6.106;2023-03-13T13:57:22;97759.25;;;24.30;41.01
58698;BME280;44475;53.206;-6.106;2023-03-13T14:02:25;97767.28;;;24.25;41.03
58698;BME280;44475;53.206;-6.106;2023-03-13T14:05:06;97777.16;;;24.26;41.13
58698;BME280;44475;53.206;-6.106;2023-03-13T14:07:47;97773.63;;;24.18;41.20
58698;BME280;44475;53.206;-6.106;2023-03-13T14:12:52;97755.91;;;24.21;41.14
58698;BME280;44475;53.206;-6.106;2023-03-13T14:17:46;97765.81;;;24.22;41.29
58698;BME280;44475;53.206;-6.106;2023-03-13T14:20:22;97768.53;;;24.22;40.93
58698;BME280;44475;53.206;-6.106;2023-03-13T14:22:53;97765.59;;;24.24;41.10
58698;BME280;44475;53.206;-6.106;2023-03-13T14:25:22;97765.81;;;24.22;41.27
58698;BME280;44475;53.206;-6.106;2023-03-13T14:27:50;97763.06;;;24.22;40.92
58698;BME280;44475;53.206;-6.106;2023-03-13T14:30:19;97775.06;;;24.21;41.17
58698;BME280;44475;53.206;-6.106;2023-03-13T14:32:46;97768.16;;;24.18;41.20
58698;BME280;44475;53.206;-6.106;2023-03-13T14:35:15;97781.38;;;24.22;40.89
58698;BME280;44475;53.206;-6.106;2023-03-13T14:37:47;97789.59;;;24.22;41.20
58698;BME280;44475;53.206;-6.106;2023-03-13T14:40:18;97805.53;;;24.32;40.81
58698;BME280;44475;53.206;-6.106;2023-03-13T14:42:48;97818.13;;;24.46;40.78
58698;BME280;44475;53.206;-6.106;2023-03-13T14:45:22;97815.22;;;24.34;41.02
58698;BME280;44475;53.206;-6.106;2023-03-13T14:47:51;97845.13;;;24.22;40.92
58698;BME280;44475;53.206;-6.106;2023-03-13T14:50:23;97858.81;;;24.22;40.90
58698;BME280;44475;53.206;-6.106;2023-03-13T14:53:09;97862.00;;;24.19;41.16
58698;BME280;44475;53.206;-6.106;2023-03-13T14:55:36;97883.47;;;24.15;41.02
58698;BME280;44475;53.206;-6.106;2023-03-13T15:00:46;97886.00;;;24.03;41.02
58698;BME280;44475;53.206;-6.106;2023-03-13T15:10:42;97912.53;;;24.03;41.63
58698;BME280;44475;53.206;-6.106;2023-03-13T15:13:34;97934.00;;;23.99;41.46
58698;BME280;44475;53.206;-6.106;2023-03-13T15:16:04;97940.72;;;24.03;41.51
58698;BME280;44475;53.206;-6.106;2023-03-13T15:18:38;97946.00;;;23.98;41.38
58698;BME280;44475;53.206;-6.106;2023-03-13T15:23:48;97955.66;;;24.01;41.49
58698;BME280;44475;53.206;-6.106;2023-03-13T15:26:15;97957.34;;;24.02;41.73
58698;BME280;44475;53.206;-6.106;2023-03-13T15:28:41;97955.88;;;23.99;41.48
58698;BME280;44475;53.206;-6.106;2023-03-13T15:31:10;97970.38;;;23.99;41.66